createdAt,value
2022-09-12T02:09:14.350Z,100948.60
2022-09-12T04:52:17.512Z,100879.60
2022-09-12T04:54:50.666Z,100878.60
2022-09-12T04:57:19.962Z,100879.40
2022-09-12T05:06:21.304Z,100872.80
2022-09-12T05:08:50.412Z,100869.20
2022-09-12T05:11:26.585Z,100869.00
2022-09-12T05:14:01.054Z,100864.40
2022-09-12T05:16:28.611Z,100862.20
2022-09-12T05:19:01.079Z,100860.20
2022-09-12T05:24:13.610Z,100863.40
2022-09-12T05:29:51.997Z,100859.20
2022-09-12T05:32:20.512Z,100853.20
2022-09-12T05:34:48.372Z,100850.80
2022-09-12T05:37:21.349Z,100849.20
2022-09-12T05:39:48.726Z,100850.60
2022-09-12T05:42:15.677Z,100846.20
2022-09-12T05:44:41.746Z,100844.20
2022-09-12T05:47:12.373Z,100846.40
2022-09-12T05:49:40.143Z,100846.40
2022-09-12T05:52:06.675Z,100849.20
2022-09-12T06:07:51.136Z,100857.80
2022-09-12T06:10:19.240Z,100861.40
2022-09-12T06:12:46.497Z,100866.60
2022-09-12T06:15:13.713Z,100867.80
2022-09-12T06:17:41.962Z,100867.00
2022-09-12T06:20:12.139Z,100867.20
2022-09-12T06:22:40.230Z,100870.20
2022-09-12T06:28:08.033Z,100872.00
2022-09-12T06:31:26.136Z,100866.40
2022-09-12T06:33:55.563Z,100872.20
2022-09-12T06:36:27.690Z,100870.40
2022-09-12T06:38:57.823Z,100875.00
2022-09-12T06:41:26.349Z,100873.60
2022-09-12T06:47:03.969Z,100871.20
2022-09-12T06:49:36.939Z,100870.40
2022-09-12T06:52:04.477Z,100867.60
2022-09-12T06:54:31.652Z,100871.80
2022-09-12T06:56:58.289Z,100869.80
2022-09-12T06:59:50.090Z,100869.60
2022-09-12T07:05:13.026Z,100866.20
2022-09-12T07:07:41.029Z,100868.40
2022-09-12T07:10:11.224Z,100869.40
2022-09-12T07:12:40.234Z,100871.00
2022-09-12T07:15:09.461Z,100870.40
2022-09-12T07:17:35.643Z,100874.80
2022-09-12T07:20:03.752Z,100876.60
2022-09-12T07:22:30.153Z,100875.60
2022-09-12T07:24:57.627Z,100877.40
2022-09-12T07:30:55.230Z,100875.20
2022-09-12T07:33:32.664Z,100876.40
2022-09-12T07:36:08.198Z,100874.80
2022-09-12T07:38:38.633Z,100871.80
2022-09-12T07:41:20.842Z,100871.20
2022-09-12T07:43:51.061Z,100865.80
2022-09-12T07:46:20.501Z,100862.20
2022-09-12T18:33:24.316Z,100475.20
2022-09-12T18:35:51.381Z,100479.00
2022-09-12T18:38:18.196Z,100485.40
2022-09-12T18:40:45.093Z,100481.20
2022-09-12T18:43:11.961Z,100485.20
2022-09-12T18:45:38.664Z,100483.20
2022-09-12T18:48:06.247Z,100475.20
2022-09-12T18:50:33.847Z,100477.00
2022-09-12T18:53:00.526Z,100476.80
2022-09-12T18:55:27.280Z,100481.60
2022-09-12T18:57:55.640Z,100478.80
2022-09-12T19:00:22.640Z,100478.80
2022-09-12T19:02:49.408Z,100474.80
2022-09-12T19:05:16.353Z,100469.80
2022-09-12T19:07:43.021Z,100468.20
2022-09-12T19:10:09.987Z,100456.40
2022-09-12T19:12:36.706Z,100458.80
2022-09-12T19:15:03.951Z,100459.20
2022-09-12T19:17:30.940Z,100446.80
2022-09-12T19:19:57.659Z,100442.40
2022-09-12T19:22:24.476Z,100447.20
2022-09-12T19:24:51.175Z,100449.20
2022-09-12T19:27:17.893Z,100448.00
2022-09-12T19:29:44.619Z,100441.20
2022-09-12T19:32:11.315Z,100434.80
2022-09-12T19:34:38.075Z,100435.40
2022-09-12T19:37:04.912Z,100428.00
2022-09-12T19:39:31.618Z,100429.00
2022-09-12T19:41:58.424Z,100435.20
2022-09-12T19:44:27.599Z,100442.60
2022-09-12T19:46:54.372Z,100441.80
2022-09-12T19:49:21.073Z,100442.40
2022-09-12T19:51:48.106Z,100444.40
2022-09-12T19:54:14.818Z,100439.20
2022-09-12T19:56:41.613Z,100433.80
2022-09-12T19:59:08.906Z,100431.60
2022-09-12T20:01:37.253Z,100436.60
2022-09-12T20:04:04.657Z,100436.80
2022-09-12T20:06:31.430Z,100430.40
2022-09-12T20:08:58.614Z,100434.00
2022-09-12T20:11:25.619Z,100431.20
2022-09-12T20:13:53.044Z,100433.80
2022-09-12T20:16:28.458Z,100431.00
2022-09-12T20:18:59.344Z,100430.00
2022-09-12T20:21:31.633Z,100425.20
2022-09-12T20:24:07.682Z,100426.80
2022-09-12T20:26:35.055Z,100425.20
2022-09-12T20:29:03.770Z,100421.00
2022-09-12T20:31:31.222Z,100426.80
2022-09-12T20:33:58.910Z,100421.20
2022-09-12T20:36:26.617Z,100424.20
2022-09-12T20:38:57.593Z,100418.20
2022-09-12T20:41:27.147Z,100412.60
2022-09-12T20:43:56.158Z,100404.40
2022-09-12T20:46:25.219Z,100401.00
2022-09-12T20:48:53.422Z,100400.00
2022-09-12T20:51:21.731Z,100396.80
2022-09-12T20:53:54.341Z,100391.80
2022-09-12T20:56:22.644Z,100387.20
2022-09-12T20:58:50.330Z,100387.60
2022-09-12T21:01:17.603Z,100381.40
2022-09-12T21:03:45.356Z,100375.20
2022-09-12T21:06:14.466Z,100364.80
2022-09-12T21:08:41.372Z,100354.40
2022-09-12T21:11:08.227Z,100350.60
2022-09-12T21:13:36.256Z,100345.40
2022-09-12T21:16:11.086Z,100339.20
2022-09-12T21:18:38.533Z,100333.40
2022-09-12T21:21:06.395Z,100325.60
2022-09-12T21:23:34.732Z,100327.80
2022-09-12T21:26:02.230Z,100319.40
2022-09-12T21:28:29.064Z,100320.80
2022-09-12T21:30:56.035Z,100332.80
2022-09-12T21:33:23.359Z,100332.60
2022-09-12T21:35:50.102Z,100326.60
2022-09-12T21:38:19.403Z,100326.40
2022-09-12T21:40:47.915Z,100320.40
2022-09-12T21:43:15.380Z,100320.80
2022-09-12T21:45:42.263Z,100326.20
2022-09-12T21:48:08.952Z,100333.60
2022-09-12T21:50:35.599Z,100330.80
2022-09-12T21:53:02.435Z,100333.80
2022-09-12T21:55:29.234Z,100342.00
2022-09-12T21:57:56.526Z,100348.40
2022-09-12T22:00:23.897Z,100347.00
2022-09-12T22:02:50.641Z,100347.40
2022-09-12T22:05:21.329Z,100356.00
2022-09-12T22:07:48.266Z,100352.20
2022-09-12T22:10:15.365Z,100342.60
2022-09-12T22:12:46.239Z,100343.00
2022-09-12T22:15:39.035Z,100337.40
2022-09-12T22:18:01.343Z,100334.00
2022-09-12T22:20:28.127Z,100334.60
2022-09-12T22:23:13.496Z,100340.60
2022-09-12T22:25:40.636Z,100347.20
2022-09-12T22:28:07.535Z,100356.20
2022-09-12T22:30:34.259Z,100355.40
2022-09-12T22:33:00.954Z,100357.60
2022-09-12T22:35:27.716Z,100357.80
2022-09-12T22:37:54.378Z,100356.60
2022-09-12T22:40:21.129Z,100350.80
2022-09-12T22:42:47.939Z,100339.40
2022-09-12T22:45:14.667Z,100328.20
2022-09-12T22:47:41.402Z,100334.20
2022-09-12T22:50:08.604Z,100342.20
2022-09-12T22:52:35.401Z,100336.40
2022-09-12T22:55:02.217Z,100338.60
2022-09-12T22:57:29.027Z,100345.60
2022-09-12T22:59:55.752Z,100341.40
2022-09-12T23:02:22.900Z,100350.40
2022-09-12T23:04:49.621Z,100355.60
2022-09-12T23:07:16.763Z,100346.40
2022-09-12T23:09:44.011Z,100347.20
2022-09-12T23:12:10.782Z,100349.40
2022-09-12T23:14:37.460Z,100351.80
2022-09-12T23:17:04.219Z,100355.20
2022-09-12T23:19:31.012Z,100358.40
2022-09-12T23:21:57.758Z,100353.60
2022-09-12T23:24:24.530Z,100366.00
2022-09-12T23:26:51.228Z,100362.80
2022-09-12T23:29:18.052Z,100358.60
2022-09-12T23:31:44.749Z,100357.40
2022-09-12T23:34:11.514Z,100356.80
2022-09-12T23:36:38.323Z,100354.20
2022-09-12T23:39:05.783Z,100344.20
2022-09-12T23:41:32.905Z,100345.00
2022-09-12T23:43:59.756Z,100332.00
2022-09-12T23:46:26.903Z,100333.00
2022-09-12T23:48:53.629Z,100330.40
2022-09-12T23:51:21.924Z,100331.00
2022-09-12T23:53:49.058Z,100327.80
2022-09-12T23:56:16.166Z,100334.00
2022-09-12T23:58:42.873Z,100334.40
